This is the latest recevied weather packets stored in our database for station/object EA5JMY-10. If no packets are shown the sender has not sent any weather packets the latest 10 day(s).
| Time | Temp. | Humidity | Pressure | Rain* | Wind** | Luminosity | Snow |
|---|---|---|---|---|---|---|---|
| 1777750571 | 20° C | 69% | 1019.1 hPa | - | - | - | - |
| 1777749671 | 20° C | 69% | 1019.3 hPa | - | - | - | - |
| 1777748771 | 20° C | 67% | 1019.3 hPa | - | - | - | - |
| 1777747870 | 20.56° C | 67% | 1019.5 hPa | - | - | - | - |
| 1777746970 | 20.56° C | 69% | 1019.6 hPa | - | - | - | - |
| 1777746070 | 20.56° C | 69% | 1018.9 hPa | - | - | - | - |
| 1777745170 | 20.56° C | 69% | 1019.9 hPa | - | - | - | - |
| 1777744270 | 21.11° C | 65% | 1019.9 hPa | - | - | - | - |
| 1777743370 | 21.67° C | 63% | 1019.6 hPa | - | - | - | - |
| 1777742470 | 21.67° C | 63% | 1019.6 hPa | - | - | - | - |
| 1777741570 | 21.67° C | 63% | 1019.2 hPa | - | - | - | - |
| 1777740670 | 22.22° C | 62% | 1019.4 hPa | - | - | - | - |
| 1777739769 | 22.22° C | 61% | 1019.6 hPa | - | - | - | - |
| 1777738869 | 22.78° C | 60% | 1019.9 hPa | - | - | - | - |
| 1777737969 | 23.89° C | 56% | 1019.7 hPa | - | - | - | - |
| 1777737069 | 23.33° C | 56% | 1020.1 hPa | - | - | - | - |
| 1777736169 | 24.44° C | 53% | 1020.2 hPa | - | - | - | - |
| 1777735269 | 24.44° C | 54% | 1020.6 hPa | - | - | - | - |
| 1777734369 | 24.44° C | 55% | 1020.5 hPa | - | - | - | - |
| 1777733469 | 23.89° C | 56% | 1020.7 hPa | - | - | - | - |
| 1777732569 | 24.44° C | 56% | 1021 hPa | - | - | - | - |
| 1777731668 | 24.44° C | 56% | 1021.1 hPa | - | - | - | - |
| 1777730768 | 23.89° C | 57% | 1021.2 hPa | - | - | - | - |
| 1777729868 | 23.33° C | 58% | 1021.6 hPa | - | - | - | - |
| 1777728968 | 23.89° C | 56% | 1021.5 hPa | - | - | - | - |
* Rain since midnight (hover to see other rain measurements)
** Current wind speed in m/s (hover to see current wind gust speed)